sensor_id;sensor_type;location;lat;lon;timestamp;P1;durP1;ratioP1;P2;durP2;ratioP2
3293;SDS011;1659;51.470;6.770;2023-08-21T00:01:19;4.10;;;3.33;;
3293;SDS011;1659;51.470;6.770;2023-08-21T00:03:46;4.10;;;2.97;;
3293;SDS011;1659;51.470;6.770;2023-08-21T00:06:13;5.83;;;2.90;;
3293;SDS011;1659;51.470;6.770;2023-08-21T00:08:39;4.17;;;3.40;;
3293;SDS011;1659;51.470;6.770;2023-08-21T00:11:06;6.20;;;3.47;;
3293;SDS011;1659;51.470;6.770;2023-08-21T00:13:32;2.73;;;2.50;;
3293;SDS011;1659;51.470;6.770;2023-08-21T00:16:00;4.67;;;3.37;;
3293;SDS011;1659;51.470;6.770;2023-08-21T00:18:27;4.93;;;2.70;;
3293;SDS011;1659;51.470;6.770;2023-08-21T00:20:53;7.07;;;3.47;;
3293;SDS011;1659;51.470;6.770;2023-08-21T00:23:20;5.70;;;2.70;;
3293;SDS011;1659;51.470;6.770;2023-08-21T00:25:46;7.83;;;3.33;;
3293;SDS011;1659;51.470;6.770;2023-08-21T00:28:13;5.77;;;2.93;;
3293;SDS011;1659;51.470;6.770;2023-08-21T00:30:41;4.23;;;2.73;;
3293;SDS011;1659;51.470;6.770;2023-08-21T00:33:09;4.53;;;2.63;;
3293;SDS011;1659;51.470;6.770;2023-08-21T00:35:36;5.27;;;2.83;;
3293;SDS011;1659;51.470;6.770;2023-08-21T00:38:02;8.70;;;3.00;;
3293;SDS011;1659;51.470;6.770;2023-08-21T00:40:30;3.77;;;3.00;;
3293;SDS011;1659;51.470;6.770;2023-08-21T00:42:57;5.80;;;2.83;;
3293;SDS011;1659;51.470;6.770;2023-08-21T00:45:23;6.43;;;3.30;;
3293;SDS011;1659;51.470;6.770;2023-08-21T00:47:50;6.50;;;3.43;;
3293;SDS011;1659;51.470;6.770;2023-08-21T00:50:18;5.20;;;3.23;;
3293;SDS011;1659;51.470;6.770;2023-08-21T00:52:45;3.23;;;2.70;;
3293;SDS011;1659;51.470;6.770;2023-08-21T00:55:14;3.30;;;3.00;;
3293;SDS011;1659;51.470;6.770;2023-08-21T00:57:40;2.80;;;2.60;;
3293;SDS011;1659;51.470;6.770;2023-08-21T01:00:07;5.70;;;2.80;;
3293;SDS011;1659;51.470;6.770;2023-08-21T01:02:36;6.57;;;2.97;;
3293;SDS011;1659;51.470;6.770;2023-08-21T01:05:02;4.13;;;2.83;;
3293;SDS011;1659;51.470;6.770;2023-08-21T01:07:31;3.93;;;3.00;;
3293;SDS011;1659;51.470;6.770;2023-08-21T01:10:03;5.50;;;2.93;;
3293;SDS011;1659;51.470;6.770;2023-08-21T01:12:40;3.53;;;2.90;;
3293;SDS011;1659;51.470;6.770;2023-08-21T01:15:15;5.83;;;2.67;;
3293;SDS011;1659;51.470;6.770;2023-08-21T01:17:42;3.03;;;2.83;;
3293;SDS011;1659;51.470;6.770;2023-08-21T01:20:11;7.17;;;2.83;;
3293;SDS011;1659;51.470;6.770;2023-08-21T01:22:40;3.73;;;2.47;;
3293;SDS011;1659;51.470;6.770;2023-08-21T01:25:12;5.43;;;3.10;;
3293;SDS011;1659;51.470;6.770;2023-08-21T01:27:42;7.30;;;3.03;;
3293;SDS011;1659;51.470;6.770;2023-08-21T01:30:10;6.20;;;4.27;;
3293;SDS011;1659;51.470;6.770;2023-08-21T01:32:40;4.27;;;2.53;;
3293;SDS011;1659;51.470;6.770;2023-08-21T01:35:14;2.90;;;2.60;;
3293;SDS011;1659;51.470;6.770;2023-08-21T01:37:41;5.83;;;2.30;;
3293;SDS011;1659;51.470;6.770;2023-08-21T01:40:09;6.60;;;2.90;;
3293;SDS011;1659;51.470;6.770;2023-08-21T01:42:37;4.30;;;2.50;;
3293;SDS011;1659;51.470;6.770;2023-08-21T01:45:04;5.27;;;2.83;;
3293;SDS011;1659;51.470;6.770;2023-08-21T01:47:32;3.33;;;2.63;;
3293;SDS011;1659;51.470;6.770;2023-08-21T01:49:58;6.50;;;2.80;;
3293;SDS011;1659;51.470;6.770;2023-08-21T01:52:25;9.33;;;3.80;;
3293;SDS011;1659;51.470;6.770;2023-08-21T01:54:51;6.33;;;3.43;;
3293;SDS011;1659;51.470;6.770;2023-08-21T01:57:18;5.43;;;3.10;;
3293;SDS011;1659;51.470;6.770;2023-08-21T01:59:46;9.23;;;3.20;;
3293;SDS011;1659;51.470;6.770;2023-08-21T02:02:13;2.53;;;2.33;;
3293;SDS011;1659;51.470;6.770;2023-08-21T02:04:39;10.17;;;3.60;;
3293;SDS011;1659;51.470;6.770;2023-08-21T02:07:06;5.77;;;3.43;;
3293;SDS011;1659;51.470;6.770;2023-08-21T02:09:32;5.70;;;3.23;;
3293;SDS011;1659;51.470;6.770;2023-08-21T02:11:59;5.90;;;3.60;;
3293;SDS011;1659;51.470;6.770;2023-08-21T02:14:25;4.73;;;3.60;;
3293;SDS011;1659;51.470;6.770;2023-08-21T02:16:53;3.43;;;3.13;;
3293;SDS011;1659;51.470;6.770;2023-08-21T02:19:20;3.47;;;3.17;;
3293;SDS011;1659;51.470;6.770;2023-08-21T02:21:46;3.60;;;3.20;;
3293;SDS011;1659;51.470;6.770;2023-08-21T02:24:13;6.37;;;3.23;;
3293;SDS011;1659;51.470;6.770;2023-08-21T02:26:40;8.10;;;3.40;;
3293;SDS011;1659;51.470;6.770;2023-08-21T02:29:07;7.10;;;3.13;;
3293;SDS011;1659;51.470;6.770;2023-08-21T02:31:34;3.97;;;3.07;;
3293;SDS011;1659;51.470;6.770;2023-08-21T02:34:01;6.77;;;2.80;;
3293;SDS011;1659;51.470;6.770;2023-08-21T02:36:28;4.00;;;3.03;;
3293;SDS011;1659;51.470;6.770;2023-08-21T02:38:55;8.10;;;3.40;;
3293;SDS011;1659;51.470;6.770;2023-08-21T02:41:22;4.70;;;3.60;;
3293;SDS011;1659;51.470;6.770;2023-08-21T02:43:49;5.80;;;2.67;;
3293;SDS011;1659;51.470;6.770;2023-08-21T02:46:16;8.17;;;2.97;;
3293;SDS011;1659;51.470;6.770;2023-08-21T02:48:42;4.03;;;3.27;;
3293;SDS011;1659;51.470;6.770;2023-08-21T02:51:10;13.23;;;3.23;;
3293;SDS011;1659;51.470;6.770;2023-08-21T02:53:37;4.87;;;3.30;;
3293;SDS011;1659;51.470;6.770;2023-08-21T02:56:03;9.57;;;3.20;;
3293;SDS011;1659;51.470;6.770;2023-08-21T02:58:30;4.97;;;3.50;;
3293;SDS011;1659;51.470;6.770;2023-08-21T03:00:56;6.23;;;3.70;;
3293;SDS011;1659;51.470;6.770;2023-08-21T03:03:23;5.53;;;3.43;;
3293;SDS011;1659;51.470;6.770;2023-08-21T03:05:49;5.80;;;3.67;;
3293;SDS011;1659;51.470;6.770;2023-08-21T03:08:17;4.10;;;3.60;;
3293;SDS011;1659;51.470;6.770;2023-08-21T03:10:44;10.20;;;3.60;;
3293;SDS011;1659;51.470;6.770;2023-08-21T03:13:10;6.30;;;4.30;;
3293;SDS011;1659;51.470;6.770;2023-08-21T03:15:37;5.80;;;3.60;;
3293;SDS011;1659;51.470;6.770;2023-08-21T03:18:03;5.73;;;3.13;;
3293;SDS011;1659;51.470;6.770;2023-08-21T03:20:30;6.73;;;3.63;;
3293;SDS011;1659;51.470;6.770;2023-08-21T03:22:57;6.80;;;3.53;;
3293;SDS011;1659;51.470;6.770;2023-08-21T03:25:24;3.07;;;2.77;;
3293;SDS011;1659;51.470;6.770;2023-08-21T03:27:51;7.53;;;3.50;;
3293;SDS011;1659;51.470;6.770;2023-08-21T03:30:18;6.17;;;3.07;;
3293;SDS011;1659;51.470;6.770;2023-08-21T03:32:44;2.80;;;2.60;;
3293;SDS011;1659;51.470;6.770;2023-08-21T03:35:11;9.33;;;4.03;;
3293;SDS011;1659;51.470;6.770;2023-08-21T03:37:37;9.93;;;3.63;;
3293;SDS011;1659;51.470;6.770;2023-08-21T03:40:04;4.30;;;3.83;;
3293;SDS011;1659;51.470;6.770;2023-08-21T03:42:32;5.83;;;3.63;;
3293;SDS011;1659;51.470;6.770;2023-08-21T03:44:59;4.00;;;3.07;;
3293;SDS011;1659;51.470;6.770;2023-08-21T03:47:26;7.17;;;3.30;;
3293;SDS011;1659;51.470;6.770;2023-08-21T03:49:52;8.77;;;4.37;;
3293;SDS011;1659;51.470;6.770;2023-08-21T03:52:19;11.07;;;4.20;;
3293;SDS011;1659;51.470;6.770;2023-08-21T03:54:45;5.30;;;4.27;;
3293;SDS011;1659;51.470;6.770;2023-08-21T03:57:12;7.90;;;4.93;;
3293;SDS011;1659;51.470;6.770;2023-08-21T03:59:40;7.73;;;4.50;;
3293;SDS011;1659;51.470;6.770;2023-08-21T04:02:06;6.13;;;4.13;;
3293;SDS011;1659;51.470;6.770;2023-08-21T04:04:33;13.20;;;4.60;;
3293;SDS011;1659;51.470;6.770;2023-08-21T04:06:59;3.90;;;3.60;;
3293;SDS011;1659;51.470;6.770;2023-08-21T04:09:26;7.80;;;4.50;;
3293;SDS011;1659;51.470;6.770;2023-08-21T04:11:52;7.10;;;4.23;;
3293;SDS011;1659;51.470;6.770;2023-08-21T04:14:19;5.77;;;4.00;;
3293;SDS011;1659;51.470;6.770;2023-08-21T04:16:47;6.20;;;4.10;;
3293;SDS011;1659;51.470;6.770;2023-08-21T04:19:13;8.00;;;4.33;;
3293;SDS011;1659;51.470;6.770;2023-08-21T04:21:40;10.43;;;4.90;;
3293;SDS011;1659;51.470;6.770;2023-08-21T04:24:06;8.27;;;4.07;;
3293;SDS011;1659;51.470;6.770;2023-08-21T04:26:33;8.00;;;4.03;;
3293;SDS011;1659;51.470;6.770;2023-08-21T04:29:00;4.87;;;3.97;;
3293;SDS011;1659;51.470;6.770;2023-08-21T04:31:26;7.97;;;3.80;;
3293;SDS011;1659;51.470;6.770;2023-08-21T04:33:54;8.37;;;3.57;;
3293;SDS011;1659;51.470;6.770;2023-08-21T04:36:21;7.30;;;3.67;;
3293;SDS011;1659;51.470;6.770;2023-08-21T04:38:47;6.53;;;3.90;;
3293;SDS011;1659;51.470;6.770;2023-08-21T04:41:14;5.20;;;3.47;;
3293;SDS011;1659;51.470;6.770;2023-08-21T04:43:40;4.57;;;4.10;;
3293;SDS011;1659;51.470;6.770;2023-08-21T04:46:07;12.10;;;4.43;;
3293;SDS011;1659;51.470;6.770;2023-08-21T04:48:33;5.70;;;3.97;;
3293;SDS011;1659;51.470;6.770;2023-08-21T04:51:01;6.10;;;4.27;;
3293;SDS011;1659;51.470;6.770;2023-08-21T04:53:28;6.90;;;3.63;;
3293;SDS011;1659;51.470;6.770;2023-08-21T04:55:55;10.40;;;4.10;;
3293;SDS011;1659;51.470;6.770;2023-08-21T04:58:24;8.77;;;4.07;;
3293;SDS011;1659;51.470;6.770;2023-08-21T05:00:50;8.17;;;4.10;;
3293;SDS011;1659;51.470;6.770;2023-08-21T05:03:17;9.93;;;4.10;;
3293;SDS011;1659;51.470;6.770;2023-08-21T05:05:51;6.40;;;4.10;;
3293;SDS011;1659;51.470;6.770;2023-08-21T05:08:19;7.83;;;4.00;;
3293;SDS011;1659;51.470;6.770;2023-08-21T05:10:46;7.90;;;4.47;;
3293;SDS011;1659;51.470;6.770;2023-08-21T05:13:13;13.27;;;4.10;;
3293;SDS011;1659;51.470;6.770;2023-08-21T05:15:42;5.20;;;4.10;;
3293;SDS011;1659;51.470;6.770;2023-08-21T05:18:08;6.67;;;4.50;;
3293;SDS011;1659;51.470;6.770;2023-08-21T05:20:35;7.47;;;4.53;;
3293;SDS011;1659;51.470;6.770;2023-08-21T05:23:01;9.03;;;4.57;;
3293;SDS011;1659;51.470;6.770;2023-08-21T05:25:30;17.43;;;6.23;;
3293;SDS011;1659;51.470;6.770;2023-08-21T05:27:58;8.77;;;5.27;;
3293;SDS011;1659;51.470;6.770;2023-08-21T05:30:24;8.60;;;4.90;;
3293;SDS011;1659;51.470;6.770;2023-08-21T05:32:51;10.03;;;5.23;;
3293;SDS011;1659;51.470;6.770;2023-08-21T05:35:18;14.67;;;5.70;;
3293;SDS011;1659;51.470;6.770;2023-08-21T05:37:44;11.27;;;5.03;;
3293;SDS011;1659;51.470;6.770;2023-08-21T05:40:11;6.57;;;5.23;;
3293;SDS011;1659;51.470;6.770;2023-08-21T05:42:40;6.30;;;4.30;;
3293;SDS011;1659;51.470;6.770;2023-08-21T05:45:06;10.40;;;4.23;;
3293;SDS011;1659;51.470;6.770;2023-08-21T05:47:33;6.80;;;3.80;;
3293;SDS011;1659;51.470;6.770;2023-08-21T05:50:00;10.20;;;4.73;;
3293;SDS011;1659;51.470;6.770;2023-08-21T05:52:27;13.93;;;4.20;;
3293;SDS011;1659;51.470;6.770;2023-08-21T05:54:54;12.50;;;4.40;;
3293;SDS011;1659;51.470;6.770;2023-08-21T05:57:20;15.67;;;5.03;;
3293;SDS011;1659;51.470;6.770;2023-08-21T05:59:48;14.97;;;5.30;;
3293;SDS011;1659;51.470;6.770;2023-08-21T06:02:16;9.80;;;5.10;;
3293;SDS011;1659;51.470;6.770;2023-08-21T06:04:42;18.03;;;7.20;;
3293;SDS011;1659;51.470;6.770;2023-08-21T06:07:09;22.57;;;9.57;;
3293;SDS011;1659;51.470;6.770;2023-08-21T06:09:36;19.33;;;7.73;;
3293;SDS011;1659;51.470;6.770;2023-08-21T06:12:02;16.17;;;8.03;;
3293;SDS011;1659;51.470;6.770;2023-08-21T06:14:29;16.50;;;8.20;;
3293;SDS011;1659;51.470;6.770;2023-08-21T06:16:58;14.10;;;4.97;;
3293;SDS011;1659;51.470;6.770;2023-08-21T06:19:26;12.20;;;4.60;;
3293;SDS011;1659;51.470;6.770;2023-08-21T06:21:53;9.97;;;5.07;;
3293;SDS011;1659;51.470;6.770;2023-08-21T06:24:20;5.73;;;4.20;;
3293;SDS011;1659;51.470;6.770;2023-08-21T06:26:47;7.47;;;3.50;;
3293;SDS011;1659;51.470;6.770;2023-08-21T06:29:13;6.07;;;3.83;;
3293;SDS011;1659;51.470;6.770;2023-08-21T06:31:40;5.57;;;3.80;;
3293;SDS011;1659;51.470;6.770;2023-08-21T06:34:08;8.60;;;3.30;;
3293;SDS011;1659;51.470;6.770;2023-08-21T06:36:34;6.33;;;2.80;;
3293;SDS011;1659;51.470;6.770;2023-08-21T06:39:01;6.00;;;3.20;;
3293;SDS011;1659;51.470;6.770;2023-08-21T06:41:28;5.57;;;3.20;;
3293;SDS011;1659;51.470;6.770;2023-08-21T06:43:55;8.07;;;4.60;;
3293;SDS011;1659;51.470;6.770;2023-08-21T06:46:22;6.77;;;3.50;;
3293;SDS011;1659;51.470;6.770;2023-08-21T06:48:48;10.97;;;3.93;;
3293;SDS011;1659;51.470;6.770;2023-08-21T06:51:16;8.40;;;4.97;;
3293;SDS011;1659;51.470;6.770;2023-08-21T06:53:43;7.63;;;4.57;;
3293;SDS011;1659;51.470;6.770;2023-08-21T06:56:09;12.40;;;4.13;;
3293;SDS011;1659;51.470;6.770;2023-08-21T06:58:36;6.40;;;4.40;;
3293;SDS011;1659;51.470;6.770;2023-08-21T07:01:02;5.80;;;3.73;;
3293;SDS011;1659;51.470;6.770;2023-08-21T07:03:29;11.63;;;4.63;;
3293;SDS011;1659;51.470;6.770;2023-08-21T07:05:56;8.80;;;4.07;;
3293;SDS011;1659;51.470;6.770;2023-08-21T07:08:24;11.23;;;4.23;;
3293;SDS011;1659;51.470;6.770;2023-08-21T07:10:51;6.70;;;3.70;;
3293;SDS011;1659;51.470;6.770;2023-08-21T07:13:18;10.37;;;4.87;;
3293;SDS011;1659;51.470;6.770;2023-08-21T07:15:45;5.63;;;3.77;;
3293;SDS011;1659;51.470;6.770;2023-08-21T07:18:12;11.80;;;6.50;;
3293;SDS011;1659;51.470;6.770;2023-08-21T07:20:39;6.17;;;4.50;;
3293;SDS011;1659;51.470;6.770;2023-08-21T07:23:06;10.43;;;4.63;;
3293;SDS011;1659;51.470;6.770;2023-08-21T07:25:34;13.77;;;6.70;;
3293;SDS011;1659;51.470;6.770;2023-08-21T07:28:00;10.13;;;7.13;;
3293;SDS011;1659;51.470;6.770;2023-08-21T07:30:27;4.60;;;3.97;;
3293;SDS011;1659;51.470;6.770;2023-08-21T07:32:53;8.50;;;4.87;;
3293;SDS011;1659;51.470;6.770;2023-08-21T07:35:20;8.27;;;4.97;;
3293;SDS011;1659;51.470;6.770;2023-08-21T07:37:47;7.53;;;3.90;;
3293;SDS011;1659;51.470;6.770;2023-08-21T07:40:13;4.80;;;3.40;;
3293;SDS011;1659;51.470;6.770;2023-08-21T07:42:41;7.70;;;3.10;;
3293;SDS011;1659;51.470;6.770;2023-08-21T07:45:08;4.87;;;2.70;;
3293;SDS011;1659;51.470;6.770;2023-08-21T07:47:35;5.07;;;3.00;;
3293;SDS011;1659;51.470;6.770;2023-08-21T07:50:02;7.47;;;3.50;;
3293;SDS011;1659;51.470;6.770;2023-08-21T07:52:28;9.80;;;2.80;;
3293;SDS011;1659;51.470;6.770;2023-08-21T07:54:55;4.37;;;2.10;;
3293;SDS011;1659;51.470;6.770;2023-08-21T07:57:22;4.77;;;2.10;;
3293;SDS011;1659;51.470;6.770;2023-08-21T07:59:49;8.23;;;2.50;;
3293;SDS011;1659;51.470;6.770;2023-08-21T08:02:16;3.20;;;2.60;;
3293;SDS011;1659;51.470;6.770;2023-08-21T08:04:43;4.63;;;2.40;;
3293;SDS011;1659;51.470;6.770;2023-08-21T08:07:09;3.73;;;2.43;;
3293;SDS011;1659;51.470;6.770;2023-08-21T08:09:36;2.83;;;2.20;;
3293;SDS011;1659;51.470;6.770;2023-08-21T08:12:03;6.23;;;3.30;;
3293;SDS011;1659;51.470;6.770;2023-08-21T08:14:30;2.87;;;2.47;;
3293;SDS011;1659;51.470;6.770;2023-08-21T08:16:58;2.40;;;2.03;;
3293;SDS011;1659;51.470;6.770;2023-08-21T08:19:24;2.23;;;2.03;;
3293;SDS011;1659;51.470;6.770;2023-08-21T08:21:51;3.00;;;2.40;;
3293;SDS011;1659;51.470;6.770;2023-08-21T08:24:17;2.73;;;2.03;;
3293;SDS011;1659;51.470;6.770;2023-08-21T08:26:44;3.93;;;2.03;;
3293;SDS011;1659;51.470;6.770;2023-08-21T08:29:11;3.60;;;2.27;;
3293;SDS011;1659;51.470;6.770;2023-08-21T08:31:37;3.60;;;2.37;;
3293;SDS011;1659;51.470;6.770;2023-08-21T08:34:05;4.00;;;2.13;;
3293;SDS011;1659;51.470;6.770;2023-08-21T08:36:32;3.53;;;1.93;;
3293;SDS011;1659;51.470;6.770;2023-08-21T08:38:58;2.50;;;1.70;;
3293;SDS011;1659;51.470;6.770;2023-08-21T08:41:25;3.13;;;1.77;;
3293;SDS011;1659;51.470;6.770;2023-08-21T08:43:56;5.93;;;2.40;;
3293;SDS011;1659;51.470;6.770;2023-08-21T08:46:24;2.53;;;2.33;;
3293;SDS011;1659;51.470;6.770;2023-08-21T08:48:50;2.50;;;1.70;;
3293;SDS011;1659;51.470;6.770;2023-08-21T08:51:19;6.93;;;2.43;;
3293;SDS011;1659;51.470;6.770;2023-08-21T08:53:46;5.60;;;2.13;;
3293;SDS011;1659;51.470;6.770;2023-08-21T08:56:13;5.03;;;2.13;;
3293;SDS011;1659;51.470;6.770;2023-08-21T08:58:40;5.50;;;1.93;;
3293;SDS011;1659;51.470;6.770;2023-08-21T09:01:07;5.30;;;2.47;;
3293;SDS011;1659;51.470;6.770;2023-08-21T09:03:35;3.03;;;2.23;;
3293;SDS011;1659;51.470;6.770;2023-08-21T09:06:02;5.83;;;2.20;;
3293;SDS011;1659;51.470;6.770;2023-08-21T09:08:30;2.47;;;2.10;;
3293;SDS011;1659;51.470;6.770;2023-08-21T09:10:57;2.93;;;1.90;;
3293;SDS011;1659;51.470;6.770;2023-08-21T09:13:27;2.60;;;2.00;;
3293;SDS011;1659;51.470;6.770;2023-08-21T09:15:54;3.50;;;2.37;;
3293;SDS011;1659;51.470;6.770;2023-08-21T09:18:21;5.10;;;2.27;;
3293;SDS011;1659;51.470;6.770;2023-08-21T09:20:48;3.93;;;2.30;;
3293;SDS011;1659;51.470;6.770;2023-08-21T09:23:15;2.33;;;2.03;;
3293;SDS011;1659;51.470;6.770;2023-08-21T09:25:45;2.23;;;1.93;;
3293;SDS011;1659;51.470;6.770;2023-08-21T09:28:13;4.73;;;2.20;;
3293;SDS011;1659;51.470;6.770;2023-08-21T09:30:43;2.20;;;2.00;;
3293;SDS011;1659;51.470;6.770;2023-08-21T09:33:11;4.43;;;2.53;;
3293;SDS011;1659;51.470;6.770;2023-08-21T09:35:38;3.70;;;2.17;;
3293;SDS011;1659;51.470;6.770;2023-08-21T09:38:07;4.23;;;1.90;;
3293;SDS011;1659;51.470;6.770;2023-08-21T09:40:34;6.23;;;1.90;;
3293;SDS011;1659;51.470;6.770;2023-08-21T09:43:02;3.07;;;2.00;;
3293;SDS011;1659;51.470;6.770;2023-08-21T09:45:29;3.33;;;1.93;;
3293;SDS011;1659;51.470;6.770;2023-08-21T09:47:57;2.37;;;2.20;;
3293;SDS011;1659;51.470;6.770;2023-08-21T09:50:25;2.97;;;2.23;;
3293;SDS011;1659;51.470;6.770;2023-08-21T09:52:54;2.67;;;1.77;;
3293;SDS011;1659;51.470;6.770;2023-08-21T09:55:22;2.80;;;1.90;;
3293;SDS011;1659;51.470;6.770;2023-08-21T09:57:51;1.60;;;1.50;;
3293;SDS011;1659;51.470;6.770;2023-08-21T10:00:25;5.37;;;1.90;;
3293;SDS011;1659;51.470;6.770;2023-08-21T10:02:53;3.63;;;2.57;;
3293;SDS011;1659;51.470;6.770;2023-08-21T10:05:21;1.83;;;1.73;;
3293;SDS011;1659;51.470;6.770;2023-08-21T10:07:49;4.70;;;2.03;;
3293;SDS011;1659;51.470;6.770;2023-08-21T10:10:16;2.37;;;1.50;;
3293;SDS011;1659;51.470;6.770;2023-08-21T10:12:43;2.80;;;1.73;;
3293;SDS011;1659;51.470;6.770;2023-08-21T10:15:09;3.63;;;1.60;;
3293;SDS011;1659;51.470;6.770;2023-08-21T10:17:38;5.37;;;1.73;;
3293;SDS011;1659;51.470;6.770;2023-08-21T10:20:06;4.30;;;2.17;;
3293;SDS011;1659;51.470;6.770;2023-08-21T10:22:42;3.90;;;2.00;;
3293;SDS011;1659;51.470;6.770;2023-08-21T10:25:16;2.97;;;2.07;;
3293;SDS011;1659;51.470;6.770;2023-08-21T10:27:45;1.73;;;1.67;;
3293;SDS011;1659;51.470;6.770;2023-08-21T10:30:13;2.67;;;1.97;;
3293;SDS011;1659;51.470;6.770;2023-08-21T10:32:46;3.57;;;2.50;;
3293;SDS011;1659;51.470;6.770;2023-08-21T10:35:13;3.10;;;2.23;;
3293;SDS011;1659;51.470;6.770;2023-08-21T10:40:32;2.53;;;2.03;;
3293;SDS011;1659;51.470;6.770;2023-08-21T10:43:00;3.27;;;1.90;;
3293;SDS011;1659;51.470;6.770;2023-08-21T10:45:27;5.30;;;2.77;;
3293;SDS011;1659;51.470;6.770;2023-08-21T10:47:57;3.03;;;1.90;;
3293;SDS011;1659;51.470;6.770;2023-08-21T10:50:24;2.93;;;2.23;;
3293;SDS011;1659;51.470;6.770;2023-08-21T10:52:51;2.60;;;1.80;;
3293;SDS011;1659;51.470;6.770;2023-08-21T10:55:18;3.20;;;1.80;;
3293;SDS011;1659;51.470;6.770;2023-08-21T10:57:46;3.87;;;1.73;;
3293;SDS011;1659;51.470;6.770;2023-08-21T11:00:14;2.63;;;1.90;;
3293;SDS011;1659;51.470;6.770;2023-08-21T11:02:42;1.80;;;1.70;;
3293;SDS011;1659;51.470;6.770;2023-08-21T11:05:11;7.83;;;2.60;;
3293;SDS011;1659;51.470;6.770;2023-08-21T11:07:39;3.53;;;2.10;;
3293;SDS011;1659;51.470;6.770;2023-08-21T11:10:09;2.50;;;1.97;;
3293;SDS011;1659;51.470;6.770;2023-08-21T11:12:38;3.70;;;1.70;;
3293;SDS011;1659;51.470;6.770;2023-08-21T11:15:05;3.37;;;2.37;;
3293;SDS011;1659;51.470;6.770;2023-08-21T11:17:32;2.97;;;2.37;;
3293;SDS011;1659;51.470;6.770;2023-08-21T11:20:00;3.83;;;1.93;;
3293;SDS011;1659;51.470;6.770;2023-08-21T11:22:31;3.53;;;1.80;;
3293;SDS011;1659;51.470;6.770;2023-08-21T11:24:58;4.37;;;2.07;;
3293;SDS011;1659;51.470;6.770;2023-08-21T11:27:25;2.30;;;2.10;;
3293;SDS011;1659;51.470;6.770;2023-08-21T11:29:52;2.17;;;2.00;;
3293;SDS011;1659;51.470;6.770;2023-08-21T11:32:19;5.93;;;2.40;;
3293;SDS011;1659;51.470;6.770;2023-08-21T11:34:48;3.20;;;2.20;;
3293;SDS011;1659;51.470;6.770;2023-08-21T11:37:16;9.90;;;2.70;;
3293;SDS011;1659;51.470;6.770;2023-08-21T11:39:47;2.50;;;2.10;;
3293;SDS011;1659;51.470;6.770;2023-08-21T11:42:15;3.70;;;2.10;;
3293;SDS011;1659;51.470;6.770;2023-08-21T11:44:43;2.30;;;2.10;;
3293;SDS011;1659;51.470;6.770;2023-08-21T11:47:10;3.33;;;2.20;;
3293;SDS011;1659;51.470;6.770;2023-08-21T11:49:38;3.43;;;2.73;;
3293;SDS011;1659;51.470;6.770;2023-08-21T11:52:07;2.53;;;2.30;;
3293;SDS011;1659;51.470;6.770;2023-08-21T11:54:34;3.77;;;2.57;;
3293;SDS011;1659;51.470;6.770;2023-08-21T11:57:04;3.70;;;2.00;;
3293;SDS011;1659;51.470;6.770;2023-08-21T11:59:32;3.50;;;2.50;;
3293;SDS011;1659;51.470;6.770;2023-08-21T12:01:58;4.27;;;2.30;;
3293;SDS011;1659;51.470;6.770;2023-08-21T12:04:26;5.40;;;1.97;;
3293;SDS011;1659;51.470;6.770;2023-08-21T12:06:52;3.70;;;2.97;;
3293;SDS011;1659;51.470;6.770;2023-08-21T12:09:19;7.33;;;2.83;;
3293;SDS011;1659;51.470;6.770;2023-08-21T12:11:45;6.73;;;2.40;;
3293;SDS011;1659;51.470;6.770;2023-08-21T12:14:13;3.10;;;2.17;;
3293;SDS011;1659;51.470;6.770;2023-08-21T12:16:40;3.60;;;2.00;;
3293;SDS011;1659;51.470;6.770;2023-08-21T12:19:07;3.23;;;2.43;;
3293;SDS011;1659;51.470;6.770;2023-08-21T12:21:34;2.07;;;1.93;;
3293;SDS011;1659;51.470;6.770;2023-08-21T12:24:03;2.67;;;2.23;;
3293;SDS011;1659;51.470;6.770;2023-08-21T12:26:38;6.10;;;2.40;;
3293;SDS011;1659;51.470;6.770;2023-08-21T12:29:05;3.67;;;2.60;;
3293;SDS011;1659;51.470;6.770;2023-08-21T12:31:31;3.30;;;2.30;;
3293;SDS011;1659;51.470;6.770;2023-08-21T12:33:58;2.50;;;2.30;;
3293;SDS011;1659;51.470;6.770;2023-08-21T12:36:24;3.00;;;2.80;;
3293;SDS011;1659;51.470;6.770;2023-08-21T12:38:51;3.00;;;2.70;;
3293;SDS011;1659;51.470;6.770;2023-08-21T12:41:17;3.07;;;2.20;;
3293;SDS011;1659;51.470;6.770;2023-08-21T12:43:45;4.80;;;2.60;;
3293;SDS011;1659;51.470;6.770;2023-08-21T12:46:12;3.67;;;2.93;;
3293;SDS011;1659;51.470;6.770;2023-08-21T12:48:39;2.30;;;2.10;;
3293;SDS011;1659;51.470;6.770;2023-08-21T12:51:06;2.40;;;2.20;;
3293;SDS011;1659;51.470;6.770;2023-08-21T12:53:33;2.17;;;1.97;;
3293;SDS011;1659;51.470;6.770;2023-08-21T12:55:59;2.83;;;2.63;;
3293;SDS011;1659;51.470;6.770;2023-08-21T12:58:26;4.00;;;2.67;;
3293;SDS011;1659;51.470;6.770;2023-08-21T13:00:54;4.17;;;2.27;;
3293;SDS011;1659;51.470;6.770;2023-08-21T13:03:21;5.90;;;3.07;;
3293;SDS011;1659;51.470;6.770;2023-08-21T13:05:48;6.83;;;2.90;;
3293;SDS011;1659;51.470;6.770;2023-08-21T13:08:16;2.40;;;2.20;;
3293;SDS011;1659;51.470;6.770;2023-08-21T13:10:42;6.47;;;2.50;;
3293;SDS011;1659;51.470;6.770;2023-08-21T13:13:09;4.73;;;2.80;;
3293;SDS011;1659;51.470;6.770;2023-08-21T13:15:35;6.77;;;2.27;;
3293;SDS011;1659;51.470;6.770;2023-08-21T13:18:04;5.30;;;3.13;;
3293;SDS011;1659;51.470;6.770;2023-08-21T13:20:31;3.73;;;2.40;;
3293;SDS011;1659;51.470;6.770;2023-08-21T13:22:57;3.57;;;2.50;;
3293;SDS011;1659;51.470;6.770;2023-08-21T13:25:24;2.67;;;2.10;;
3293;SDS011;1659;51.470;6.770;2023-08-21T13:27:51;5.40;;;2.47;;
3293;SDS011;1659;51.470;6.770;2023-08-21T13:30:18;3.47;;;2.83;;
3293;SDS011;1659;51.470;6.770;2023-08-21T13:32:47;3.77;;;2.97;;
3293;SDS011;1659;51.470;6.770;2023-08-21T13:35:15;4.17;;;2.43;;
3293;SDS011;1659;51.470;6.770;2023-08-21T13:37:42;4.70;;;2.77;;
3293;SDS011;1659;51.470;6.770;2023-08-21T13:40:09;4.53;;;2.50;;
3293;SDS011;1659;51.470;6.770;2023-08-21T13:42:39;3.00;;;2.33;;
3293;SDS011;1659;51.470;6.770;2023-08-21T13:45:07;2.33;;;2.23;;
3293;SDS011;1659;51.470;6.770;2023-08-21T13:47:36;5.30;;;2.50;;
3293;SDS011;1659;51.470;6.770;2023-08-21T13:50:03;5.70;;;2.80;;
3293;SDS011;1659;51.470;6.770;2023-08-21T13:52:32;3.07;;;2.77;;
3293;SDS011;1659;51.470;6.770;2023-08-21T13:54:59;4.17;;;2.93;;
3293;SDS011;1659;51.470;6.770;2023-08-21T13:57:26;3.67;;;3.17;;
3293;SDS011;1659;51.470;6.770;2023-08-21T13:59:52;4.20;;;2.70;;
3293;SDS011;1659;51.470;6.770;2023-08-21T14:02:19;2.37;;;2.17;;
3293;SDS011;1659;51.470;6.770;2023-08-21T14:04:48;3.50;;;2.63;;
3293;SDS011;1659;51.470;6.770;2023-08-21T14:07:14;4.10;;;2.40;;
3293;SDS011;1659;51.470;6.770;2023-08-21T14:09:42;2.83;;;2.60;;
3293;SDS011;1659;51.470;6.770;2023-08-21T14:12:09;4.10;;;2.50;;
3293;SDS011;1659;51.470;6.770;2023-08-21T14:14:35;2.97;;;2.60;;
3293;SDS011;1659;51.470;6.770;2023-08-21T14:17:02;3.43;;;2.80;;
3293;SDS011;1659;51.470;6.770;2023-08-21T14:19:29;3.37;;;2.77;;
3293;SDS011;1659;51.470;6.770;2023-08-21T14:21:57;4.33;;;2.80;;
3293;SDS011;1659;51.470;6.770;2023-08-21T14:24:24;3.73;;;2.80;;
3293;SDS011;1659;51.470;6.770;2023-08-21T14:26:52;4.00;;;2.90;;
3293;SDS011;1659;51.470;6.770;2023-08-21T14:29:18;6.43;;;3.10;;
3293;SDS011;1659;51.470;6.770;2023-08-21T14:31:45;4.30;;;3.17;;
3293;SDS011;1659;51.470;6.770;2023-08-21T14:34:13;3.23;;;3.03;;
3293;SDS011;1659;51.470;6.770;2023-08-21T14:36:40;3.47;;;2.60;;
3293;SDS011;1659;51.470;6.770;2023-08-21T14:39:07;3.83;;;3.30;;
3293;SDS011;1659;51.470;6.770;2023-08-21T14:41:35;5.40;;;2.80;;
3293;SDS011;1659;51.470;6.770;2023-08-21T14:44:08;3.53;;;2.30;;
3293;SDS011;1659;51.470;6.770;2023-08-21T14:46:35;2.97;;;2.77;;
3293;SDS011;1659;51.470;6.770;2023-08-21T14:49:02;3.90;;;2.83;;
3293;SDS011;1659;51.470;6.770;2023-08-21T14:51:28;3.97;;;3.17;;
3293;SDS011;1659;51.470;6.770;2023-08-21T14:53:55;3.77;;;3.03;;
3293;SDS011;1659;51.470;6.770;2023-08-21T14:56:21;4.93;;;3.33;;
3293;SDS011;1659;51.470;6.770;2023-08-21T14:58:48;4.20;;;2.83;;
3293;SDS011;1659;51.470;6.770;2023-08-21T15:01:16;7.30;;;3.63;;
3293;SDS011;1659;51.470;6.770;2023-08-21T15:03:42;4.23;;;3.53;;
3293;SDS011;1659;51.470;6.770;2023-08-21T15:06:09;4.17;;;3.77;;
3293;SDS011;1659;51.470;6.770;2023-08-21T15:08:37;3.97;;;3.57;;
3293;SDS011;1659;51.470;6.770;2023-08-21T15:11:04;4.13;;;3.73;;
3293;SDS011;1659;51.470;6.770;2023-08-21T15:13:31;8.03;;;4.10;;
3293;SDS011;1659;51.470;6.770;2023-08-21T15:15:57;6.40;;;3.90;;
3293;SDS011;1659;51.470;6.770;2023-08-21T15:18:25;7.93;;;3.50;;